createdAt,value
2023-12-24T00:01:08.534Z,5.90
2023-12-24T00:06:11.664Z,8.13
2023-12-24T00:11:14.778Z,5.77
2023-12-24T00:16:18.796Z,14.87
2023-12-24T00:21:21.638Z,8.43
2023-12-24T00:26:25.948Z,5.27
2023-12-24T00:31:29.904Z,9.77
2023-12-24T00:36:33.909Z,8.40
2023-12-24T00:41:39.500Z,9.63
2023-12-24T00:46:45.458Z,10.93
2023-12-24T00:51:48.164Z,5.47
2023-12-24T00:56:50.923Z,5.23
2023-12-24T01:01:54.957Z,13.00
2023-12-24T01:07:04.086Z,4.70
2023-12-24T01:12:08.510Z,6.50
2023-12-24T01:17:19.293Z,7.40
2023-12-24T01:22:22.550Z,6.10
2023-12-24T01:27:25.921Z,5.40
2023-12-24T01:32:30.094Z,4.10
2023-12-24T01:37:34.491Z,8.43
2023-12-24T01:42:37.212Z,9.07
2023-12-24T01:47:43.318Z,5.47
2023-12-24T01:52:46.203Z,7.43
2023-12-24T01:57:51.409Z,13.10
2023-12-24T02:02:56.810Z,9.33
2023-12-24T02:08:00.786Z,5.50
2023-12-24T02:13:03.763Z,5.10
2023-12-24T02:18:09.124Z,5.83
2023-12-24T02:23:13.292Z,4.17
2023-12-24T02:28:24.360Z,9.10
2023-12-24T02:33:31.618Z,12.60
2023-12-24T02:38:35.793Z,6.93
2023-12-24T02:43:38.799Z,4.83
2023-12-24T02:48:41.506Z,4.93
2023-12-24T02:53:46.703Z,9.23
2023-12-24T02:58:52.110Z,4.70
2023-12-24T03:03:54.738Z,7.60
2023-12-24T03:09:00.585Z,4.43
2023-12-24T03:14:03.738Z,3.83
2023-12-24T03:19:06.737Z,5.13
2023-12-24T03:24:11.512Z,2.97
2023-12-24T03:29:14.507Z,3.80
2023-12-24T03:34:17.342Z,2.93
2023-12-24T03:39:21.520Z,2.70
2023-12-24T03:44:24.148Z,2.20
2023-12-24T03:49:26.795Z,2.20
2023-12-24T03:54:30.787Z,2.83
2023-12-24T03:59:33.999Z,1.30
2023-12-24T04:04:36.685Z,1.40
2023-12-24T04:09:42.948Z,1.50
2023-12-24T04:14:45.673Z,2.37
2023-12-24T04:20:09.185Z,1.67
2023-12-24T04:25:34.448Z,1.10
2023-12-24T04:30:57.954Z,1.57
2023-12-24T04:36:23.234Z,1.03
2023-12-24T04:41:52.032Z,0.93
2023-12-24T04:47:15.309Z,1.63
2023-12-24T04:52:39.138Z,1.20
2023-12-24T04:58:05.514Z,0.70
2023-12-24T05:03:28.524Z,1.30
2023-12-24T05:08:51.552Z,0.60
2023-12-24T05:14:15.757Z,0.70
2023-12-24T05:19:18.493Z,1.67
2023-12-24T05:25:04.783Z,1.23
2023-12-24T05:30:19.281Z,1.60
2023-12-24T05:35:22.039Z,1.83
2023-12-24T05:40:25.292Z,4.70
2023-12-24T05:45:29.741Z,1.10
2023-12-24T05:50:32.531Z,0.60
2023-12-24T05:55:35.243Z,0.60
2023-12-24T06:00:39.261Z,0.70
2023-12-24T06:05:42.280Z,0.90
2023-12-24T06:10:46.322Z,0.70
2023-12-24T06:15:50.337Z,0.90
2023-12-24T06:20:53.271Z,1.73
2023-12-24T06:25:56.031Z,0.77
2023-12-24T06:31:05.028Z,0.70
2023-12-24T06:36:10.909Z,1.73
2023-12-24T06:41:13.704Z,0.80
2023-12-24T06:46:18.207Z,0.60
2023-12-24T06:51:21.306Z,1.77
2023-12-24T06:56:24.005Z,0.90
2023-12-24T07:01:27.992Z,0.80
2023-12-24T07:06:30.699Z,0.70
2023-12-24T07:11:33.523Z,0.80
2023-12-24T07:16:40.696Z,1.37
2023-12-24T07:21:43.838Z,0.70
2023-12-24T07:26:47.047Z,2.50
2023-12-24T07:31:51.051Z,0.70
2023-12-24T07:36:54.838Z,0.60
2023-12-24T07:41:57.899Z,0.70
2023-12-24T07:47:02.145Z,0.70
2023-12-24T07:52:05.165Z,1.43
2023-12-24T07:57:07.989Z,1.00
2023-12-24T09:57:43.560Z,1.10
2023-12-24T10:26:47.123Z,1.13
2023-12-24T10:32:25.605Z,1.00
2023-12-24T10:37:30.906Z,1.00
2023-12-24T10:42:33.707Z,1.10
2023-12-24T10:47:39.460Z,1.00
2023-12-24T10:52:43.793Z,1.50
2023-12-24T10:57:57.454Z,0.90
2023-12-24T11:03:01.573Z,2.23
2023-12-24T11:08:04.565Z,3.47
2023-12-24T11:13:12.703Z,1.30
2023-12-24T11:18:47.009Z,1.30
2023-12-24T11:24:22.593Z,0.70
2023-12-24T11:29:49.451Z,1.00
2023-12-24T11:34:54.061Z,1.67
2023-12-24T11:40:01.350Z,3.43
2023-12-24T11:45:04.259Z,3.10
2023-12-24T11:50:13.720Z,3.53
2023-12-24T11:55:16.995Z,2.83
2023-12-24T12:00:26.079Z,2.87
2023-12-24T12:05:31.620Z,2.00
2023-12-24T12:10:34.605Z,2.60
2023-12-24T12:15:37.444Z,2.17
2023-12-24T12:20:42.454Z,2.13
2023-12-24T12:25:45.920Z,3.17
2023-12-24T12:30:48.649Z,1.80
2023-12-24T12:35:53.182Z,1.50
2023-12-24T12:41:01.777Z,1.93
2023-12-24T12:46:07.287Z,1.90
2023-12-24T12:51:11.567Z,1.67
2023-12-24T12:56:15.269Z,1.43
2023-12-24T13:01:18.213Z,1.53
2023-12-24T13:06:23.043Z,1.10
2023-12-24T13:11:25.831Z,1.13
2023-12-24T13:16:28.486Z,3.03
2023-12-24T13:21:32.497Z,1.00
2023-12-24T13:26:35.884Z,0.80
2023-12-24T13:31:41.633Z,4.53
2023-12-24T13:36:45.781Z,1.53
2023-12-24T13:41:48.657Z,0.90
2023-12-24T13:46:51.285Z,6.73
2023-12-24T13:51:57.458Z,3.23
2023-12-24T13:57:00.247Z,2.70
2023-12-24T14:02:03.038Z,2.63
2023-12-24T14:07:08.934Z,1.50
2023-12-24T14:12:15.580Z,1.33
2023-12-24T14:17:21.454Z,2.90
2023-12-24T14:22:28.481Z,3.17
2023-12-24T14:27:32.741Z,2.77
2023-12-24T14:32:37.230Z,2.00
2023-12-24T14:37:41.353Z,2.53
2023-12-24T14:42:44.329Z,2.57
2023-12-24T14:47:47.319Z,2.83
2023-12-24T14:52:51.995Z,4.50
2023-12-24T14:57:55.584Z,2.90
2023-12-24T15:02:58.321Z,5.10
2023-12-24T15:08:02.445Z,5.93
2023-12-24T15:13:05.435Z,3.10
2023-12-24T15:18:08.674Z,4.53
2023-12-24T15:23:12.909Z,4.23
2023-12-24T15:28:16.604Z,2.73
2023-12-24T15:33:21.873Z,3.43
2023-12-24T15:38:26.167Z,2.87
2023-12-24T15:43:29.080Z,4.87
2023-12-24T15:48:31.991Z,6.07
2023-12-24T15:53:36.248Z,3.57
2023-12-24T15:58:38.957Z,6.23
2023-12-24T16:03:42.090Z,3.50
2023-12-24T16:08:46.387Z,2.90
2023-12-24T16:13:50.086Z,3.97
2023-12-24T16:18:53.109Z,9.20
2023-12-24T16:23:57.123Z,4.80
2023-12-24T16:28:59.798Z,6.43
2023-12-24T16:34:02.643Z,4.80
2023-12-24T16:39:07.196Z,2.60
2023-12-24T16:44:10.356Z,2.50
2023-12-24T16:49:16.301Z,5.33
2023-12-24T16:54:21.543Z,2.80
2023-12-24T16:59:42.859Z,5.23
2023-12-24T17:05:06.587Z,6.57
2023-12-24T17:10:30.933Z,4.60
2023-12-24T17:15:53.921Z,3.40
2023-12-24T17:21:17.081Z,8.63
2023-12-24T17:26:42.368Z,7.53
2023-12-24T17:32:06.487Z,9.17
2023-12-24T17:37:29.535Z,7.60
2023-12-24T17:42:53.968Z,4.10
2023-12-24T17:48:20.321Z,4.50
2023-12-24T17:53:45.667Z,4.47
2023-12-24T17:59:10.311Z,3.63
2023-12-24T18:04:33.250Z,2.83
2023-12-24T18:09:56.366Z,11.13
2023-12-24T18:15:20.752Z,4.50
2023-12-24T18:20:43.959Z,4.17
2023-12-24T18:26:13.941Z,4.73
2023-12-24T18:31:42.783Z,4.80
2023-12-24T18:37:06.198Z,4.30
2023-12-24T18:42:30.895Z,11.83
2023-12-24T18:47:55.433Z,8.10
2023-12-24T18:53:18.452Z,8.67
2023-12-24T18:58:41.535Z,9.40
2023-12-24T19:04:05.890Z,8.30
2023-12-24T19:09:29.026Z,8.07
2023-12-24T19:14:52.035Z,11.00
2023-12-24T19:20:16.774Z,11.70
2023-12-24T19:25:39.821Z,8.50
2023-12-24T19:31:03.013Z,11.57
2023-12-24T19:36:27.483Z,10.20
2023-12-24T19:41:50.556Z,16.00
2023-12-24T19:47:15.131Z,18.90
2023-12-24T19:52:46.083Z,12.37
2023-12-24T19:58:09.916Z,11.17
2023-12-24T20:03:33.140Z,5.70
2023-12-24T20:08:57.533Z,13.07
2023-12-24T20:14:20.755Z,10.30
2023-12-24T20:19:43.960Z,8.40
2023-12-24T20:25:09.162Z,8.33
2023-12-24T20:30:32.294Z,18.87
2023-12-24T20:35:55.386Z,10.60
2023-12-24T20:41:19.897Z,6.90
2023-12-24T20:46:46.447Z,8.23
2023-12-24T20:52:10.290Z,8.23
2023-12-24T20:57:35.930Z,6.27
2023-12-24T21:03:01.588Z,7.97
2023-12-24T21:08:25.106Z,7.17
2023-12-24T21:13:52.141Z,4.47
2023-12-24T21:19:15.345Z,4.67
2023-12-24T21:24:39.167Z,6.80
2023-12-24T21:30:03.519Z,3.83
2023-12-24T21:35:26.685Z,3.47
2023-12-24T21:40:50.885Z,4.00
2023-12-24T21:46:24.423Z,3.70
2023-12-24T21:51:50.691Z,3.07
2023-12-24T21:57:14.994Z,5.70
2023-12-24T22:02:40.162Z,4.03
2023-12-24T22:08:04.296Z,4.10
2023-12-24T22:13:32.009Z,6.97
2023-12-24T22:18:57.001Z,2.50
2023-12-24T22:24:24.562Z,6.47
2023-12-24T22:29:49.285Z,3.23
2023-12-24T22:35:15.236Z,2.50
2023-12-24T22:40:38.940Z,3.57
2023-12-24T22:46:03.729Z,3.47
2023-12-24T22:51:28.031Z,2.30
2023-12-24T22:56:51.484Z,2.10
2023-12-24T23:02:14.522Z,2.30
2023-12-24T23:07:38.857Z,1.30
2023-12-24T23:13:02.172Z,2.13
2023-12-24T23:18:26.124Z,2.10
2023-12-24T23:23:52.528Z,1.47
2023-12-24T23:29:17.219Z,3.60
2023-12-24T23:34:44.039Z,3.23
2023-12-24T23:40:11.495Z,1.47
2023-12-24T23:45:35.739Z,3.67
2023-12-24T23:50:59.063Z,1.83
2023-12-24T23:56:23.752Z,1.60
